Saint Lawrence, South Dakota
Current Conditions -  °F | °C
As of 10:55 AM on Friday 19 Dec 2014 (Local Time) from KHON Reporting Station
Haze Haze  
Wind Chill: -8°   Ceiling: 400
Heat Index: -2°   Visibility: 2.5mi
Dew Point: -3°   Wind: 13mph
Humidity: 92%   Direction: 180°S
Pressure: 30.08"   Gusts: 22mph
Location:  44.52°N, 98.94°W
Report Text: KHON 191655Z AUTO 18011G19KT 2 1/2SM BR OVC004 M02/M03 A3008 RMK AO2 SLP203 T10221033
Loading
Personal Weather Stations






























Interactive Weather Map New forecast layout! Learn more

10-Day Weather Forecast

Advertisements
Track Severe Weather on mobile